Time;durP1;ratioP1;P1;durP2;ratioP2;P2;SDS_P1;SDS_P2;PMS_P1;PMS_P2;Temp;Humidity;BMP_temperature;BMP_pressure;BME280_temperature;BME280_humidity;BME280_pressure;Samples;Min_cycle;Max_cycle;Signal;HPM_P1;HPM_P2
2021/01/13 00:00:01;;;;;;;21.30;9.83;;;;;;;-0.87;94.55;99039.94;5081794;28;20465;-83
2021/01/13 00:02:28;;;;;;;20.83;9.38;;;;;;;-0.84;95.04;99042.38;5056705;28;20070;-83
2021/01/13 00:04:54;;;;;;;16.30;9.10;;;;;;;-0.83;94.91;99043.22;5074950;28;20044;-83
2021/01/13 00:07:21;;;;;;;19.67;10.27;;;;;;;-0.73;94.81;99049.56;5074382;28;20052;-83
2021/01/13 00:09:47;;;;;;;17.63;9.50;;;;;;;-0.68;94.47;99062.56;5074256;28;20413;-83
2021/01/13 00:12:16;;;;;;;20.13;9.37;;;;;;;-0.78;94.49;99035.75;5077131;28;20055;-83
2021/01/13 00:14:43;;;;;;;17.43;9.07;;;;;;;-0.69;94.21;99063.53;5078949;28;20103;-83
2021/01/13 00:17:10;;;;;;;18.00;8.77;;;;;;;-0.60;94.09;99047.69;5074663;28;20052;-83
2021/01/13 00:19:39;;;;;;;19.37;9.53;;;;;;;-0.63;94.05;99049.72;5074824;28;20425;-83
2021/01/13 00:22:06;;;;;;;22.42;9.93;;;;;;;-0.58;93.99;99058.25;5074644;28;20052;-83
2021/01/13 00:24:32;;;;;;;17.57;9.53;;;;;;;-0.60;93.47;99042.34;5073791;28;20068;-83
2021/01/13 00:26:59;;;;;;;21.57;10.90;;;;;;;-0.56;93.43;99054.50;5074257;28;20053;-82
2021/01/13 00:29:27;;;;;;;16.20;9.40;;;;;;;-0.64;93.33;99046.22;5088584;28;20052;-83
2021/01/13 00:31:56;;;;;;;18.30;9.83;;;;;;;-0.56;93.76;99064.31;5094786;28;20055;-83
2021/01/13 00:34:23;;;;;;;20.70;9.77;;;;;;;-0.73;93.47;99036.22;5074015;28;20056;-83
2021/01/13 00:36:49;;;;;;;17.20;8.63;;;;;;;-0.80;94.04;99037.66;5073957;28;20059;-83
2021/01/13 00:39:16;;;;;;;17.30;9.53;;;;;;;-0.73;93.57;99061.09;5077066;28;20051;-82
2021/01/13 00:41:42;;;;;;;15.50;8.03;;;;;;;-0.76;93.62;99053.31;5062724;28;20597;-83
2021/01/13 00:44:09;;;;;;;17.90;9.83;;;;;;;-0.66;93.57;99084.66;5073830;28;20054;-82
2021/01/13 00:46:38;;;;;;;17.70;9.13;;;;;;;-0.76;93.71;99069.34;5073118;28;20055;-83
2021/01/13 00:49:06;;;;;;;17.48;9.35;;;;;;;-0.68;93.49;99081.25;5079166;28;20040;-82
2021/01/13 00:51:38;;;;;;;16.80;9.57;;;;;;;-0.78;93.72;99076.63;5073458;28;20070;-83
2021/01/13 00:54:13;;;;;;;19.30;9.00;;;;;;;-0.94;93.37;99060.88;5083790;28;20044;-83
2021/01/13 00:56:42;;;;;;;17.57;9.70;;;;;;;-0.88;93.55;99072.94;5094045;28;20450;-83
2021/01/13 00:59:12;;;;;;;17.60;8.47;;;;;;;-0.82;92.96;99096.50;5093988;28;20051;-82
2021/01/13 01:01:42;;;;;;;17.13;8.43;;;;;;;-0.99;93.40;99081.75;5093907;28;20048;-82
2021/01/13 01:04:53;;;;;;;12.13;7.85;;;;;;;-0.92;92.77;99093.66;5093780;28;20076;-82
2021/01/13 01:07:19;;;;;;;14.97;8.00;;;;;;;-1.09;92.55;99086.88;5093776;28;20051;-82
2021/01/13 01:09:50;;;;;;;13.90;8.13;;;;;;;-1.00;93.18;99113.88;5093889;28;20055;-82
2021/01/13 01:12:18;;;;;;;14.43;7.80;;;;;;;-1.10;93.07;99093.22;5084414;28;20048;-82
2021/01/13 01:14:47;;;;;;;16.10;9.17;;;;;;;-1.02;92.94;99091.78;5072769;28;20491;-82
2021/01/13 01:17:17;;;;;;;15.77;8.90;;;;;;;-1.02;92.11;99083.75;5072935;28;20060;-82
2021/01/13 01:19:43;;;;;;;;;;;;;;;-0.92;92.61;99104.34;5063947;28;20048;-82
2021/01/13 01:22:10;;;;;;;17.40;8.93;;;;;;;-1.22;92.94;99091.41;5073427;28;19920;-83
2021/01/13 01:24:38;;;;;;;16.93;9.30;;;;;;;-1.18;92.55;99108.91;5073222;28;20578;-83
2021/01/13 01:27:08;;;;;;;19.33;9.17;;;;;;;-1.28;93.14;99094.53;5072835;28;20369;-83
2021/01/13 01:29:36;;;;;;;20.48;10.20;;;;;;;-1.22;93.24;99114.59;5073605;28;20048;-83
2021/01/13 01:32:03;;;;;;;17.87;10.33;;;;;;;-1.00;93.14;99124.56;5073464;28;20059;-83
2021/01/13 01:34:30;;;;;;;22.57;11.47;;;;;;;-1.09;92.51;99124.25;5072836;28;20554;-82
2021/01/13 01:36:58;;;;;;;17.67;9.83;;;;;;;-1.16;93.07;99120.34;5073474;28;20048;-82
2021/01/13 01:39:27;;;;;;;14.00;8.90;;;;;;;-1.13;92.86;99132.59;5073128;28;20182;-82
2021/01/13 01:41:54;;;;;;;18.40;8.73;;;;;;;-1.32;92.95;99107.25;5073211;28;20044;-83
2021/01/13 01:44:21;;;;;;;14.73;8.97;;;;;;;-1.10;93.65;99148.38;5071834;28;20589;-83
2021/01/13 01:46:56;;;;;;;19.90;10.73;;;;;;;-1.02;93.15;99139.81;5050899;28;20044;-83
2021/01/13 01:49:23;;;;;;;20.87;10.23;;;;;;;-0.98;93.30;99154.63;5082073;28;20060;-83
2021/01/13 01:52:02;;;;;;;21.57;11.00;;;;;;;-1.13;94.02;99130.78;5071682;28;20386;-83
2021/01/13 01:54:35;;;;;;;23.60;10.70;;;;;;;-1.02;93.78;99142.47;5081793;28;20071;-83
2021/01/13 01:57:04;;;;;;;20.10;9.90;;;;;;;-0.95;93.55;99162.41;5071210;28;20094;-83
2021/01/13 01:59:42;;;;;;;19.23;10.57;;;;;;;-1.03;93.68;99154.13;5075002;28;20071;-83
2021/01/13 02:02:10;;;;;;;21.27;10.97;;;;;;;-0.85;93.90;99163.44;5054460;28;20647;-83
2021/01/13 02:04:41;;;;;;;19.03;10.97;;;;;;;-0.92;93.30;99162.19;5074049;28;20094;-83
2021/01/13 02:07:31;;;;;;;20.03;10.83;;;;;;;-0.88;93.50;99158.34;5076719;28;20070;-83
2021/01/13 02:10:03;;;;;;;19.70;9.82;;;;;;;-0.96;92.93;99155.41;5077094;28;20143;-83
2021/01/13 02:12:32;;;;;;;20.67;9.60;;;;;;;-0.95;92.87;99149.06;5076680;28;20566;-83
2021/01/13 02:15:18;;;;;;;20.83;10.18;;;;;;;-0.91;93.27;99166.56;5074872;28;20048;-83
2021/01/13 02:17:54;;;;;;;17.17;11.07;;;;;;;-0.94;93.50;99162.31;5069921;28;20074;-82
2021/01/13 02:20:25;;;;;;;17.97;10.90;;;;;;;-1.01;93.50;99136.19;5070199;28;20472;-82
2021/01/13 02:22:55;;;;;;;19.67;10.60;;;;;;;-0.90;93.25;99160.28;5076691;28;20052;-82
2021/01/13 02:26:08;;;;;;;15.75;8.95;;;;;;;-1.03;93.83;99173.66;5084546;28;20044;-82
2021/01/13 02:28:46;;;;;;;23.03;9.77;;;;;;;-1.15;94.06;99158.53;5032763;28;20049;-82
2021/01/13 02:31:40;;;;;;;20.63;9.70;;;;;;;-1.02;94.21;99164.69;5076683;28;20056;-82
2021/01/13 02:34:20;;;;;;;19.00;10.00;;;;;;;-1.07;93.98;99145.47;5076186;28;20041;-83
2021/01/13 02:37:03;;;;;;;;;;;;;;;-0.99;93.96;99169.81;5068113;28;20040;-83
2021/01/13 02:39:34;;;;;;;16.00;8.33;;;;;;;-1.00;93.97;99173.44;5076519;28;19920;-83
2021/01/13 02:42:01;;;;;;;21.47;9.90;;;;;;;-1.11;93.52;99141.34;5061608;28;20049;-82
2021/01/13 02:44:31;;;;;;;16.77;9.53;;;;;;;-0.95;93.58;99165.09;5055481;28;20041;-83
2021/01/13 02:47:07;;;;;;;18.73;9.63;;;;;;;-0.99;93.46;99166.28;5055937;28;20092;-82
2021/01/13 02:49:39;;;;;;;19.30;9.33;;;;;;;-1.14;93.12;99158.41;5084613;28;20072;-83
2021/01/13 02:52:19;;;;;;;20.00;10.03;;;;;;;-1.09;93.21;99182.94;5078019;28;20087;-82
2021/01/13 02:54:54;;;;;;;20.73;9.63;;;;;;;-1.26;93.27;99149.47;5085778;28;20048;-83
2021/01/13 02:57:26;;;;;;;15.67;9.20;;;;;;;-1.21;93.30;99150.97;5054941;28;20401;-83
2021/01/13 02:59:57;;;;;;;15.80;9.23;;;;;;;-1.11;93.18;99178.69;5056117;28;20567;-83
2021/01/13 03:02:36;;;;;;;16.40;9.70;;;;;;;-1.08;93.38;99183.81;5076149;28;20052;-83
2021/01/13 03:05:03;;;;;;;19.13;9.27;;;;;;;-1.28;93.34;99158.53;5075583;28;20514;-83
2021/01/13 03:07:35;;;;;;;14.53;8.47;;;;;;;-1.34;93.26;99165.19;5075722;28;20055;-83
2021/01/13 03:10:09;;;;;;;15.57;9.10;;;;;;;-1.45;93.28;99154.44;5083131;28;20048;-83
2021/01/13 03:12:40;;;;;;;17.90;9.20;;;;;;;-1.38;93.17;99157.53;5086135;28;20073;-83
2021/01/13 03:15:09;;;;;;;15.10;8.77;;;;;;;-1.35;92.83;99167.97;5075862;28;20473;-83
2021/01/13 03:18:03;;;;;;;14.97;8.70;;;;;;;-1.39;93.12;99167.31;5085199;28;20098;-83
2021/01/13 03:20:32;;;;;;;16.13;8.77;;;;;;;-1.46;93.01;99166.03;5053644;28;20052;-83
2021/01/13 03:23:13;;;;;;;18.13;10.43;;;;;;;-1.36;92.58;99168.94;5082614;28;20055;-83
2021/01/13 03:25:52;;;;;;;17.37;9.23;;;;;;;-1.43;92.64;99169.38;5081005;28;20059;-82
2021/01/13 03:28:19;;;;;;;18.53;9.20;;;;;;;-1.63;92.50;99152.09;5078057;28;20040;-82
2021/01/13 03:30:50;;;;;;;14.10;7.83;;;;;;;-1.67;92.75;99157.75;5073017;28;20060;-82
2021/01/13 03:33:53;;;;;;;13.63;7.97;;;;;;;-1.54;92.76;99185.25;5073897;28;20072;-82
2021/01/13 03:36:29;;;;;;;16.63;9.27;;;;;;;-1.55;92.63;99182.69;5054949;28;20057;-82
2021/01/13 03:39:05;;;;;;;14.43;9.03;;;;;;;-1.56;92.75;99173.84;5055390;28;20045;-82
2021/01/13 03:42:07;;;;;;;18.07;9.80;;;;;;;-1.54;92.74;99179.91;5062127;28;20060;-83
2021/01/13 03:44:37;;;;;;;16.90;9.30;;;;;;;-1.52;92.78;99179.81;5074506;28;20056;-83
2021/01/13 03:47:48;;;;;;;16.52;8.52;;;;;;;-1.72;92.68;99170.56;5075502;28;20055;-83
2021/01/13 03:50:20;;;;;;;16.13;8.43;;;;;;;-1.59;92.63;99200.72;5074932;28;20546;-82
2021/01/13 03:52:56;;;;;;;17.13;9.03;;;;;;;-1.58;93.03;99202.44;5074911;28;20052;-82
2021/01/13 03:55:24;;;;;;;19.07;8.57;;;;;;;-1.74;92.93;99178.66;5074881;28;20382;-83
2021/01/13 03:58:21;;;;;;;15.37;9.30;;;;;;;-1.67;92.92;99187.06;5075276;28;20060;-82
2021/01/13 04:01:01;;;;;;;20.67;9.07;;;;;;;-1.64;93.26;99190.38;5064930;28;20093;-82
2021/01/13 04:03:30;;;;;;;14.40;8.70;;;;;;;-1.63;92.69;99191.22;5073500;28;20101;-82
2021/01/13 04:06:05;;;;;;;18.02;9.30;;;;;;;-1.73;92.93;99183.03;5074118;28;20049;-82
2021/01/13 04:08:53;;;;;;;18.23;10.00;;;;;;;-1.67;92.83;99205.72;5070872;28;20082;-82
2021/01/13 04:11:23;;;;;;;12.40;8.07;;;;;;;-1.64;92.41;99211.72;5078601;28;20048;-82
2021/01/13 04:13:56;;;;;;;;;;;;;;;-1.68;92.59;99201.38;5088901;28;20105;-82
2021/01/13 04:16:24;;;;;;;13.07;8.50;;;;;;;-1.76;92.39;99195.69;5053824;28;20007;-82
2021/01/13 04:18:53;;;;;;;15.33;8.73;;;;;;;-1.70;91.98;99225.47;5058021;28;20048;-82
2021/01/13 04:21:21;;;;;;;16.07;9.43;;;;;;;-1.75;92.07;99195.59;5092525;28;20054;-82
2021/01/13 04:23:49;;;;;;;22.90;9.60;;;;;;;-1.82;92.55;99205.84;5077807;28;20234;-82
2021/01/13 04:26:15;;;;;;;22.30;9.20;;;;;;;-1.84;92.98;99199.75;5092402;28;20040;-82
2021/01/13 04:28:42;;;;;;;17.17;8.77;;;;;;;-1.79;92.92;99220.78;5082874;28;20098;-82
2021/01/13 04:31:10;;;;;;;17.23;8.50;;;;;;;-1.67;92.60;99216.38;5088569;28;20078;-82
2021/01/13 04:33:37;;;;;;;18.70;9.73;;;;;;;-1.67;92.63;99201.28;5084777;28;20514;-82
2021/01/13 04:36:04;;;;;;;17.87;9.03;;;;;;;-1.65;92.79;99212.66;5072590;28;20044;-82
2021/01/13 04:38:35;;;;;;;17.23;8.83;;;;;;;-1.76;92.65;99207.25;5072490;28;20049;-82
2021/01/13 04:41:07;;;;;;;14.37;8.50;;;;;;;-1.72;93.46;99231.84;5073170;28;20129;-82
2021/01/13 04:43:50;;;;;;;18.50;9.40;;;;;;;-1.84;93.25;99209.56;5071976;28;20052;-82
2021/01/13 04:46:28;;;;;;;17.10;9.27;;;;;;;-1.74;93.24;99215.13;5070705;28;20538;-82
2021/01/13 04:49:06;;;;;;;16.27;9.27;;;;;;;-1.81;93.03;99217.34;5084126;28;20045;-83
2021/01/13 04:51:34;;;;;;;16.03;9.20;;;;;;;-1.71;92.85;99226.41;5072236;28;20099;-81
2021/01/13 04:54:05;;;;;;;19.03;8.93;;;;;;;-1.78;92.73;99230.47;5085237;28;20074;-84
2021/01/13 04:56:39;;;;;;;16.33;8.40;;;;;;;-1.82;93.19;99240.50;5074542;28;20056;-82
2021/01/13 04:59:43;;;;;;;16.33;8.70;;;;;;;-1.89;93.15;99215.22;5075895;28;20098;-83
2021/01/13 05:02:10;;;;;;;18.43;8.20;;;;;;;-1.81;92.84;99236.00;5043144;28;20477;-83
2021/01/13 05:05:03;;;;;;;17.33;9.03;;;;;;;-1.83;93.31;99233.44;5082534;28;20048;-83
2021/01/13 05:07:32;;;;;;;15.43;8.27;;;;;;;-1.83;93.20;99233.44;5073409;28;20110;-82
2021/01/13 05:10:02;;;;;;;17.43;8.40;;;;;;;-1.86;93.45;99227.47;5091636;28;20046;-82
2021/01/13 05:12:54;;;;;;;17.08;9.65;;;;;;;-1.82;92.76;99237.81;5080391;28;20052;-82
2021/01/13 05:15:26;;;;;;;16.40;9.40;;;;;;;-1.77;93.01;99255.31;5071913;28;20044;-83
2021/01/13 05:18:05;;;;;;;17.43;9.57;;;;;;;-1.82;93.34;99237.81;5073789;28;20049;-82
2021/01/13 05:20:33;;;;;;;20.30;9.70;;;;;;;-1.73;93.22;99259.47;5073039;28;20466;-82
2021/01/13 05:23:01;;;;;;;18.47;9.50;;;;;;;-1.78;93.25;99241.13;5072229;28;20380;-82
2021/01/13 05:25:45;;;;;;;18.60;8.90;;;;;;;-1.74;93.10;99242.63;5070738;28;20511;-82
2021/01/13 05:28:14;;;;;;;20.37;11.87;;;;;;;-1.83;93.06;99237.94;5070016;28;20044;-82
2021/01/13 05:30:43;;;;;;;14.40;9.07;;;;;;;-1.90;92.59;99234.81;5071835;28;20090;-82
2021/01/13 05:33:12;;;;;;;16.10;9.50;;;;;;;-1.92;92.73;99223.41;5058486;28;20410;-82
2021/01/13 05:35:42;;;;;;;15.77;8.53;;;;;;;-1.95;93.07;99228.94;5082799;28;20451;-82
2021/01/13 05:38:15;;;;;;;19.93;9.63;;;;;;;-1.77;93.56;99250.00;5072012;28;20040;-83
2021/01/13 05:40:48;;;;;;;14.47;8.93;;;;;;;-1.82;93.14;99235.16;5079340;28;20044;-82
2021/01/13 05:43:16;;;;;;;17.43;9.80;;;;;;;-1.87;92.99;99231.09;5082517;28;20044;-82
2021/01/13 05:45:44;;;;;;;19.23;9.47;;;;;;;-1.89;93.19;99225.03;5092853;28;20048;-82
2021/01/13 05:48:24;;;;;;;18.13;10.13;;;;;;;-1.92;93.51;99219.91;5080657;28;20128;-83
2021/01/13 05:50:56;;;;;;;15.97;9.70;;;;;;;-1.75;92.85;99230.25;5074468;28;20097;-82
2021/01/13 05:53:26;;;;;;;19.23;9.37;;;;;;;-1.77;93.29;99236.66;5083767;28;20564;-82
2021/01/13 05:55:54;;;;;;;20.70;9.93;;;;;;;-1.74;92.82;99239.13;5075922;28;20054;-82
2021/01/13 05:58:26;;;;;;;16.30;9.27;;;;;;;-1.90;92.56;99229.47;5084058;28;20052;-82
2021/01/13 06:00:55;;;;;;;21.97;9.57;;;;;;;-1.98;92.54;99216.69;5072059;28;20184;-82
2021/01/13 06:03:25;;;;;;;14.43;8.80;;;;;;;-1.87;92.93;99239.09;5071226;28;20165;-82
2021/01/13 06:05:57;;;;;;;13.98;8.38;;;;;;;-1.92;92.32;99236.72;5071860;28;20127;-82
2021/01/13 06:08:28;;;;;;;15.87;9.30;;;;;;;-1.88;92.94;99243.56;5072783;28;20102;-82
2021/01/13 06:10:59;;;;;;;19.23;8.27;;;;;;;-2.05;92.95;99218.03;5077528;28;20639;-82
2021/01/13 06:13:31;;;;;;;15.87;8.93;;;;;;;-2.06;93.30;99224.34;5072443;28;20052;-82
2021/01/13 06:16:06;;;;;;;19.60;8.17;;;;;;;-2.07;91.93;99227.13;5075335;28;20504;-81
2021/01/13 06:18:35;;;;;;;17.93;7.70;;;;;;;-2.07;92.33;99235.94;5077205;28;20076;-82
2021/01/13 06:21:13;;;;;;;19.07;8.47;;;;;;;-2.24;91.96;99214.91;5077223;28;20045;-82
2021/01/13 06:23:47;;;;;;;16.67;7.73;;;;;;;-2.19;91.87;99240.28;5084811;28;20518;-82
2021/01/13 06:26:15;;;;;;;13.23;8.10;;;;;;;-2.25;91.76;99243.38;5079605;28;20044;-81
2021/01/13 06:29:37;;;;;;;13.07;7.77;;;;;;;-2.16;91.63;99250.75;5083981;28;20396;-80
2021/01/13 06:32:16;;;;;;;11.90;6.60;;;;;;;-2.25;91.37;99243.38;5071978;28;20094;-79
2021/01/13 06:34:55;;;;;;;12.60;7.50;;;;;;;-2.27;91.47;99253.28;5081834;28;20481;-80
2021/01/13 06:37:45;;;;;;;15.30;7.17;;;;;;;-2.33;91.35;99246.53;5091831;28;20531;-80
2021/01/13 06:40:13;;;;;;;20.40;10.37;;;;;;;-2.45;91.62;99222.50;5093098;28;20389;-80
2021/01/13 06:42:41;;;;;;;20.80;8.47;;;;;;;-2.31;92.28;99249.94;5076876;28;20040;-80
2021/01/13 06:45:08;;;;;;;16.97;8.50;;;;;;;-2.40;93.36;99223.91;5075273;28;20055;-80
2021/01/13 06:47:35;;;;;;;19.40;9.03;;;;;;;-2.31;93.18;99239.28;5065196;28;20041;-80
2021/01/13 06:50:01;;;;;;;15.10;8.83;;;;;;;-2.23;93.00;99246.78;5070369;28;20045;-80
2021/01/13 06:52:30;;;;;;;16.20;7.77;;;;;;;-2.22;93.02;99245.81;5074316;28;20064;-80
2021/01/13 06:55:01;;;;;;;13.73;8.27;;;;;;;-2.23;92.23;99240.59;5075734;28;20480;-80
2021/01/13 06:57:29;;;;;;;19.60;7.00;;;;;;;-2.22;92.37;99240.50;5076106;28;20060;-80
2021/01/13 06:59:57;;;;;;;14.63;6.93;;;;;;;-2.17;92.48;99251.72;5077334;28;20056;-80
2021/01/13 07:02:34;;;;;;;10.83;6.20;;;;;;;-2.13;92.27;99255.84;5075794;28;20493;-80
2021/01/13 07:05:05;;;;;;;10.47;5.63;;;;;;;-2.04;92.81;99269.53;5088719;28;20139;-80
2021/01/13 07:07:31;;;;;;;16.57;6.30;;;;;;;-2.05;93.16;99265.16;5079897;28;20052;-80
2021/01/13 07:09:58;;;;;;;16.80;6.93;;;;;;;-2.03;92.99;99255.25;5075384;28;20426;-80
2021/01/13 07:12:27;;;;;;;10.07;6.40;;;;;;;-2.02;92.73;99249.84;5072840;28;20056;-80
2021/01/13 07:14:56;;;;;;;18.10;6.13;;;;;;;-2.16;92.05;99244.56;5054988;28;20052;-79
2021/01/13 07:17:24;;;;;;;12.90;6.60;;;;;;;-2.13;92.32;99261.19;5063461;28;20110;-80
2021/01/13 07:19:52;;;;;;;17.00;7.03;;;;;;;-2.20;92.19;99243.94;5055388;28;20053;-81
2021/01/13 07:22:20;;;;;;;17.77;6.80;;;;;;;-2.17;92.32;99249.06;5055443;28;20106;-80
2021/01/13 07:24:48;;;;;;;15.50;6.17;;;;;;;-1.93;92.88;99280.31;5071389;28;20041;-80
2021/01/13 07:27:16;;;;;;;16.43;7.57;;;;;;;-2.04;92.83;99246.41;5083877;28;20048;-81
2021/01/13 07:29:43;;;;;;;12.37;6.60;;;;;;;-2.00;92.73;99260.41;5073149;28;20055;-80
2021/01/13 07:32:10;;;;;;;17.37;6.60;;;;;;;-1.90;92.94;99274.78;5082030;28;20045;-80
2021/01/13 07:34:39;;;;;;;18.73;6.83;;;;;;;-2.02;92.59;99254.28;5072615;28;20064;-80
2021/01/13 07:37:08;;;;;;;22.40;7.30;;;;;;;-1.87;92.26;99279.91;5073802;28;20048;-80
2021/01/13 07:40:16;;;;;;;13.15;6.97;;;;;;;-1.88;92.98;99286.22;5072259;28;20048;-80
2021/01/13 07:42:44;;;;;;;17.60;7.40;;;;;;;-2.04;92.54;99262.38;5075207;28;20075;-81
2021/01/13 07:45:13;;;;;;;15.57;6.33;;;;;;;-1.80;92.64;99299.84;5073053;28;20040;-80
2021/01/13 07:48:24;;;;;;;20.33;7.50;;;;;;;-1.93;92.40;99279.47;5072981;28;20045;-80
2021/01/13 07:50:52;;;;;;;14.10;6.10;;;;;;;-1.94;92.40;99267.09;5046771;28;20488;-80
2021/01/13 07:53:26;;;;;;;20.13;6.27;;;;;;;-1.80;92.18;99294.53;5075649;28;20047;-80
2021/01/13 07:55:59;;;;;;;18.20;6.53;;;;;;;-1.78;92.45;99291.75;5064904;28;20056;-80
2021/01/13 07:58:28;;;;;;;16.30;6.20;;;;;;;-1.81;92.84;99290.19;5072772;28;20106;-80
2021/01/13 08:01:27;;;;;;;10.13;6.10;;;;;;;-1.67;92.24;99299.91;5071812;28;20072;-80
2021/01/13 08:04:43;;;;;;;13.02;6.35;;;;;;;-1.60;92.00;99300.31;5052664;28;20057;-80
2021/01/13 08:07:16;;;;;;;18.37;6.50;;;;;;;-1.52;91.69;99314.00;5060814;28;20052;-80
2021/01/13 08:09:49;;;;;;;15.97;7.47;;;;;;;-1.64;92.31;99291.69;5076372;28;20048;-80
2021/01/13 08:13:03;;;;;;;16.03;7.07;;;;;;;-1.47;91.89;99309.19;5074050;28;20052;-81
2021/01/13 08:16:07;;;;;;;24.73;7.67;;;;;;;-1.71;92.16;99281.56;5064813;28;20055;-81
2021/01/13 08:19:37;;;;;;;20.67;6.47;;;;;;;-1.56;92.07;99301.84;5129013;27;20361;-79
2021/01/13 08:22:10;;;;;;;;;;;;;;;-1.52;92.03;99310.47;5090902;28;20135;-80
2021/01/13 08:24:43;;;;;;;13.37;5.87;;;;;;;-1.46;91.69;99323.38;5123343;27;20377;-79
2021/01/13 08:27:10;;;;;;;11.57;5.97;;;;;;;-1.67;91.99;99288.38;5126066;28;20047;-79
2021/01/13 08:29:38;;;;;;;18.23;6.20;;;;;;;-1.47;91.92;99333.19;5109670;28;20048;-79
2021/01/13 08:32:07;;;;;;;25.50;7.07;;;;;;;-1.52;91.20;99303.34;5126978;28;20056;-79
2021/01/13 08:34:44;;;;;;;16.40;6.80;;;;;;;-1.38;91.78;99325.53;5115447;28;20062;-80
2021/01/13 08:37:13;;;;;;;14.10;6.53;;;;;;;-1.37;91.56;99338.78;5129531;27;20051;-79
2021/01/13 08:39:42;;;;;;;23.30;7.10;;;;;;;-1.33;91.68;99324.25;5125476;27;20492;-80
2021/01/13 08:42:20;;;;;;;22.58;6.90;;;;;;;-1.25;91.08;99331.72;5108525;28;20301;-80
2021/01/13 08:44:47;;;;;;;35.90;10.17;;;;;;;-1.33;91.31;99331.41;5118769;28;20047;-80
2021/01/13 08:47:17;;;;;;;23.20;10.47;;;;;;;-1.41;91.03;99310.59;5130320;27;20484;-81
2021/01/13 08:49:43;;;;;;;22.17;8.80;;;;;;;-1.21;90.27;99335.88;5114018;27;20059;-80
2021/01/13 08:52:16;;;;;;;26.43;9.17;;;;;;;-1.29;90.91;99312.41;5141017;27;20115;-83
2021/01/13 08:54:43;;;;;;;16.03;7.10;;;;;;;-1.20;90.22;99334.09;5134823;27;20507;-82
2021/01/13 08:57:12;;;;;;;18.23;7.87;;;;;;;-1.30;90.20;99315.19;5145555;27;20532;-82
2021/01/13 08:59:42;;;;;;;15.03;8.20;;;;;;;-1.03;90.30;99348.94;5128694;27;20058;-81
2021/01/13 09:02:14;;;;;;;13.30;7.63;;;;;;;-1.12;89.86;99337.91;5131041;27;20058;-81
2021/01/13 09:04:54;;;;;;;18.30;7.73;;;;;;;-1.04;90.23;99325.88;5141798;27;20054;-81
2021/01/13 09:07:24;;;;;;;10.10;5.97;;;;;;;-1.12;90.07;99319.25;5136066;27;20055;-82
2021/01/13 09:10:01;;;;;;;19.30;8.00;;;;;;;-0.96;89.69;99329.72;5128604;27;20403;-82
2021/01/13 09:12:36;;;;;;;34.13;8.33;;;;;;;-0.83;89.28;99348.38;5135222;27;20038;-81
2021/01/13 09:15:16;;;;;;;11.23;6.93;;;;;;;-0.78;89.59;99337.41;5148629;27;20046;-82
2021/01/13 09:17:48;;;;;;;21.17;6.93;;;;;;;-0.87;89.91;99341.56;5145859;27;20047;-82
2021/01/13 09:20:32;;;;;;;16.43;7.43;;;;;;;-0.93;89.27;99334.00;5133270;27;20055;-81
2021/01/13 09:23:01;;;;;;;20.13;7.60;;;;;;;-1.00;89.50;99304.19;5107191;27;20138;-81
2021/01/13 09:25:33;;;;;;;12.30;6.87;;;;;;;-0.85;89.19;99314.75;5126237;27;21734;-82
2021/01/13 09:28:02;;;;;;;13.13;6.90;;;;;;;-0.91;89.19;99316.88;5128661;27;20062;-81
2021/01/13 09:30:37;;;;;;;17.00;6.33;;;;;;;-0.78;89.09;99337.41;5116580;27;20213;-82
2021/01/13 09:33:08;;;;;;;15.07;7.40;;;;;;;-0.79;89.63;99338.34;5114104;27;20089;-82
2021/01/13 09:35:38;;;;;;;16.10;7.43;;;;;;;-0.90;89.20;99323.94;5125317;27;20043;-82
2021/01/13 09:38:08;;;;;;;13.10;6.43;;;;;;;-0.81;89.05;99319.78;5112891;27;20046;-82
2021/01/13 09:40:51;;;;;;;;;;;;;;;-0.44;88.66;99348.31;5116540;28;20051;-81
2021/01/13 09:43:25;;;;;;;16.77;6.57;;;;;;;-0.32;88.16;99334.06;5132256;27;19919;-81
2021/01/13 09:45:52;;;;;;;12.60;6.47;;;;;;;-0.20;87.78;99318.97;5129049;27;20074;-82
2021/01/13 09:48:22;;;;;;;15.50;5.90;;;;;;;-0.07;87.25;99335.81;5117368;27;20097;-83
2021/01/13 09:50:59;;;;;;;12.45;6.82;;;;;;;-0.04;87.52;99322.22;5116862;27;20048;-84
2021/01/13 09:53:32;;;;;;;15.37;6.57;;;;;;;0.03;86.79;99351.16;5111122;27;20101;-84
2021/01/13 09:56:07;;;;;;;16.90;5.83;;;;;;;-0.04;87.34;99330.25;5104553;28;20051;-83
2021/01/13 09:58:37;;;;;;;17.90;7.03;;;;;;;0.00;87.08;99330.88;5115846;28;20051;-83
2021/01/13 10:01:12;;;;;;;16.47;7.30;;;;;;;-0.19;86.85;99329.53;5115762;28;20052;-84
2021/01/13 10:03:39;;;;;;;18.13;6.07;;;;;;;-0.09;87.51;99343.09;5116325;28;20040;-84
2021/01/13 10:06:13;;;;;;;13.07;5.70;;;;;;;0.02;86.75;99336.13;5116730;28;20052;-84
2021/01/13 10:08:41;;;;;;;15.33;6.50;;;;;;;0.02;86.73;99322.75;5117797;28;20048;-84
2021/01/13 10:11:08;;;;;;;14.90;6.07;;;;;;;0.15;87.11;99339.56;5115426;27;20067;-85
2021/01/13 10:13:37;;;;;;;12.30;6.33;;;;;;;0.05;87.24;99328.72;5106732;27;20040;-85
2021/01/13 10:16:05;;;;;;;14.20;6.15;;;;;;;0.08;86.57;99327.63;5112976;27;20056;-85
2021/01/13 10:18:32;;;;;;;17.63;6.57;;;;;;;0.10;86.16;99325.69;5110638;28;20468;-85
2021/01/13 10:21:03;;;;;;;16.63;6.63;;;;;;;0.21;86.93;99327.56;5114849;28;20063;-85
2021/01/13 10:23:31;;;;;;;12.67;6.63;;;;;;;0.29;87.16;99335.88;5095612;28;20411;-85
2021/01/13 10:26:07;;;;;;;18.43;7.60;;;;;;;0.25;87.58;99321.03;5112974;28;20051;-85
2021/01/13 10:29:12;;;;;;;12.87;6.77;;;;;;;0.36;86.63;99326.41;5112198;27;20037;-85
2021/01/13 10:31:41;;;;;;;13.57;5.83;;;;;;;0.46;86.83;99315.88;5132002;27;20108;-85
2021/01/13 10:34:12;;;;;;;21.13;6.77;;;;;;;0.41;86.45;99291.31;5136414;27;20047;-85
2021/01/13 10:36:42;;;;;;;14.27;6.43;;;;;;;0.54;86.80;99308.09;5126140;27;20052;-85
2021/01/13 10:39:22;;;;;;;14.13;6.80;;;;;;;0.70;86.66;99313.97;5100511;28;20451;-85
2021/01/13 10:41:50;;;;;;;13.50;5.43;;;;;;;0.72;85.02;99310.34;5105152;28;20112;-85
2021/01/13 10:44:20;;;;;;;9.80;4.93;;;;;;;0.78;84.72;99307.19;5116009;28;20150;-84
2021/01/13 10:46:57;;;;;;;11.00;5.50;;;;;;;0.72;85.85;99280.91;5100723;28;20056;-85
2021/01/13 10:49:36;;;;;;;14.75;5.50;;;;;;;0.92;85.07;99306.09;5104326;28;20043;-84
2021/01/13 10:52:05;;;;;;;13.80;6.30;;;;;;;0.92;84.85;99309.66;5115793;28;20047;-85
2021/01/13 10:54:33;;;;;;;;;;;;;;;1.16;84.86;99297.97;5115624;28;20134;-84
2021/01/13 10:57:03;;;;;;;18.40;5.37;;;;;;;0.91;83.78;99272.31;5115473;28;20367;-84
2021/01/13 10:59:29;;;;;;;;;;;;;;;1.17;83.48;99292.50;5117206;27;20051;-84
2021/01/13 11:02:03;;;;;;;12.23;5.50;;;;;;;1.14;84.29;99290.06;5115563;28;19919;-83
2021/01/13 11:04:35;;;;;;;8.52;5.10;;;;;;;1.23;83.97;99305.41;5105587;27;20043;-84
2021/01/13 11:07:07;;;;;;;19.02;5.90;;;;;;;1.06;84.01;99288.00;5141695;27;20046;-84
2021/01/13 11:09:34;;;;;;;13.63;3.70;;;;;;;1.18;84.30;99288.84;5130639;27;20135;-83
2021/01/13 11:12:02;;;;;;;13.95;4.32;;;;;;;0.93;84.92;99271.19;5109005;28;20056;-83
2021/01/13 11:14:31;;;;;;;11.23;4.22;;;;;;;1.00;84.38;99285.78;5114957;28;20404;-83
2021/01/13 11:17:02;;;;;;;8.90;3.30;;;;;;;1.03;84.50;99285.56;5114579;28;20059;-83
2021/01/13 11:19:29;;;;;;;10.57;3.88;;;;;;;0.89;84.35;99259.03;5092751;28;20491;-83
2021/01/13 11:21:57;;;;;;;11.43;3.45;;;;;;;1.05;84.65;99285.44;5098000;28;20399;-83
2021/01/13 11:24:34;;;;;;;16.25;3.28;;;;;;;1.03;83.53;99280.19;5114180;28;20051;-83
2021/01/13 11:27:18;;;;;;;9.23;2.88;;;;;;;0.98;83.60;99274.38;5114213;28;20131;-84
2021/01/13 11:29:47;;;;;;;7.73;3.77;;;;;;;0.87;83.90;99252.94;5114726;28;20048;-82
2021/01/13 11:32:16;;;;;;;7.53;2.83;;;;;;;1.04;84.45;99263.16;5114451;28;20127;-83
2021/01/13 11:34:48;;;;;;;4.38;2.83;;;;;;;1.00;83.59;99253.66;5114388;28;20052;-83
2021/01/13 11:37:40;;;;;;;11.35;3.97;;;;;;;1.00;82.93;99252.81;5103687;28;20044;-83
2021/01/13 11:40:31;;;;;;;6.77;3.23;;;;;;;0.98;83.01;99258.31;5111673;28;20115;-84
2021/01/13 11:43:28;;;;;;;5.55;2.22;;;;;;;1.10;83.01;99272.56;5111823;28;20056;-82
2021/01/13 11:46:08;;;;;;;6.80;2.55;;;;;;;1.04;82.62;99260.50;5113395;28;20047;-82
2021/01/13 11:48:55;;;;;;;14.73;2.85;;;;;;;1.19;82.59;99273.63;5112847;28;20093;-82
2021/01/13 11:51:27;;;;;;;10.93;2.47;;;;;;;1.15;82.33;99240.06;5096632;28;20044;-82
2021/01/13 11:53:54;;;;;;;6.22;2.45;;;;;;;1.20;82.48;99240.50;5094434;28;20049;-82
2021/01/13 11:56:31;;;;;;;6.45;2.75;;;;;;;1.23;81.92;99242.94;5093445;28;20051;-81
2021/01/13 11:58:58;;;;;;;3.90;1.83;;;;;;;1.28;81.35;99250.59;5091837;28;20443;-81